KEKS

Ennis - Big Sky Airport

Ennis, Montana, USA
METAR KEKS 172115Z AUTO 17015KT 10SM OVC042 M04/M09 A3006 RMK AO2
Observed Flight Rules
Dec-17 @ 21:15 UTC (16 minutes ago) Visual Flight Rules
Wind Visibility Clouds
170° at 15 knots 10 miles
  • Overcast at 4,200' AGL
Temperatures Readings
Current -4°C / 25°F
Dewpoint -9°C / 16°F
Humidity 69%
Altimeter 30.06" Hg
Pressure 1018 hPa
Elevation 1641
METAR KEKS 172115Z AUTO 17015KT 10SM OVC042 M04/M09 A3006 RMK AO2
Observed Flight Rules
Dec-17 @ 21:15 UTC
(16 minutes ago)
VFR
Wind Visibility
170° at 15 knots 10 miles
Clouds
  • Overcast at 4,200' AGL
Temperature Dewpoint
-4°C / 25°F -9°C / 16°F
Humidity Altimeter Pressure
69% 30.06" Hg 1018 hPa